KOQT

Oak Ridge Airport

Tennessee, USA
METAR KOQT 241253Z AUTO VRB03KT 10SM CLR 24/19 A3015 RMK AO2 SLP193 T02390189
Observed Flight Rules
May-24 @ 12:53 UTC (57 minutes ago) Visual Flight Rules
Wind Visibility Clouds
Variable at 3 knots 10 miles
  • Clear skies
Temperatures Readings
Current 24°C / 75°F
Dewpoint 19°C / 66°F
Humidity 74%
Altimeter 30.15" Hg
Pressure 1019.3 hPa
Elevation 277
METAR KOQT 241253Z AUTO VRB03KT 10SM CLR 24/19 A3015 RMK AO2 SLP193 T02390189
Observed Flight Rules
May-24 @ 12:53 UTC
(57 minutes ago)
VFR
Wind Visibility
Variable at 3 knots 10 miles
Clouds
  • Clear skies
Temperature Dewpoint
24°C / 75°F 19°C / 66°F
Humidity Altimeter Pressure
74% 30.15" Hg 1019.3 hPa